Terminal Aerodrome Forecast
Issued by NWS Blacksburg, VA

Home | Current Version | Previous Version | Text Only | Print | Product List | Glossary On
Versions: 1 2 3 4 5 6 7 8 9 10 11 12
000
FTUS41 KRNK 211725
TAFDAN
TAF
KDAN 211725Z 2118/2218 15005KT P6SM SCT250
     FM220600 00000KT 1SM BR BKN008 OVC025
     FM220900 VRB02KT 1SM BR OVC008=

USA.gov is the U.S. government's official web portal to all federal, state and local government web resources and services.